createdAt,value
2022-08-07T00:04:48.094Z,102412.72
2022-08-07T00:10:04.857Z,102406.09
2022-08-07T00:15:15.169Z,102407.41
2022-08-07T00:20:29.720Z,102403.75
2022-08-07T00:25:41.580Z,102403.56
2022-08-07T00:30:44.789Z,102397.97
2022-08-07T00:35:49.810Z,102402.91
2022-08-07T00:40:54.095Z,102398.75
2022-08-07T00:45:56.910Z,102402.09
2022-08-07T00:50:59.835Z,102398.22
2022-08-07T00:56:04.683Z,102398.84
2022-08-07T01:01:17.550Z,102401.34
2022-08-07T01:06:21.923Z,102406.63
2022-08-07T01:12:09.677Z,102406.75
2022-08-07T01:16:51.042Z,102411.69
2022-08-07T01:21:56.393Z,102407.00
2022-08-07T01:27:00.916Z,102401.31
2022-08-07T01:32:05.387Z,102405.38
2022-08-07T01:37:12.175Z,102393.47
2022-08-07T01:42:39.583Z,102400.03
2022-08-07T01:48:21.486Z,102398.59
2022-08-07T01:53:08.765Z,102398.03
2022-08-07T01:58:29.178Z,102391.66
2022-08-07T02:03:48.573Z,102392.56
2022-08-07T02:08:56.564Z,102393.03
2022-08-07T02:14:02.636Z,102389.84
2022-08-07T02:20:05.372Z,102388.69
2022-08-07T02:24:34.837Z,102391.44
2022-08-07T02:29:48.742Z,102388.59
2022-08-07T02:35:01.004Z,102394.00
2022-08-07T02:40:31.093Z,102399.63
2022-08-07T02:45:58.495Z,102396.66
2022-08-07T02:50:58.221Z,102392.66
2022-08-07T02:56:07.254Z,102382.56
2022-08-07T03:01:19.121Z,102386.50
2022-08-07T03:06:40.139Z,102387.66
2022-08-07T03:11:52.567Z,102393.28
2022-08-07T03:17:01.059Z,102393.84
2022-08-07T03:22:08.152Z,102394.53
2022-08-07T03:27:30.355Z,102391.69
2022-08-07T03:32:57.140Z,102384.22
2022-08-07T03:38:05.026Z,102389.72
2022-08-07T03:43:10.045Z,102386.66
2022-08-07T03:48:17.436Z,102393.53
2022-08-07T03:53:20.333Z,102397.97
2022-08-07T03:59:09.712Z,102381.38
2022-08-07T04:04:07.705Z,102386.66
2022-08-07T04:09:23.107Z,102392.03
2022-08-07T04:14:37.351Z,102389.72
2022-08-07T04:19:52.920Z,102390.78
2022-08-07T04:25:00.994Z,102398.47
2022-08-07T04:30:11.916Z,102400.53
2022-08-07T04:35:24.166Z,102403.59
2022-08-07T04:40:31.346Z,102405.00
2022-08-07T04:46:00.348Z,102417.69
2022-08-07T04:51:09.532Z,102418.34
2022-08-07T04:58:07.577Z,102420.16
2022-08-07T05:01:50.619Z,102425.66
2022-08-07T05:06:59.952Z,102420.19
2022-08-07T05:12:26.520Z,102432.47
2022-08-07T05:17:52.994Z,102431.94
2022-08-07T05:23:02.640Z,102439.59
2022-08-07T05:28:20.852Z,102434.88
2022-08-07T05:33:29.591Z,102426.47
2022-08-07T05:38:59.994Z,102431.34
2022-08-07T05:44:08.302Z,102429.31
2022-08-07T05:49:17.357Z,102435.97
2022-08-07T05:54:30.521Z,102434.41
2022-08-07T05:59:55.918Z,102442.06
2022-08-07T06:05:06.107Z,102436.69
2022-08-07T06:10:15.384Z,102441.75
2022-08-07T06:15:20.331Z,102436.28
2022-08-07T06:20:49.801Z,102433.66
2022-08-07T06:25:54.281Z,102433.72
2022-08-07T06:30:59.773Z,102440.09
2022-08-07T06:36:13.194Z,102440.19
2022-08-07T06:41:29.324Z,102427.06
2022-08-07T06:46:53.175Z,102422.81
2022-08-07T06:52:07.550Z,102424.72
2022-08-07T06:57:13.586Z,102420.97
2022-08-07T07:02:53.725Z,102416.28
2022-08-07T07:07:59.946Z,102416.03
2022-08-07T07:13:13.193Z,102420.75
2022-08-07T07:18:33.075Z,102414.78
2022-08-07T07:24:09.776Z,102424.69
2022-08-07T07:29:38.638Z,102427.41
2022-08-07T07:34:39.793Z,102419.47
2022-08-07T07:39:54.703Z,102410.34
2022-08-07T07:45:00.752Z,102406.66
2022-08-07T07:50:35.769Z,102405.69
2022-08-07T07:55:37.839Z,102405.94
2022-08-07T08:00:54.690Z,102396.06
2022-08-07T08:05:58.475Z,102393.06
2022-08-07T08:11:03.861Z,102390.13
2022-08-07T08:16:08.402Z,102390.78
2022-08-07T08:21:55.445Z,102391.97
2022-08-07T08:27:09.651Z,102390.09
2022-08-07T08:32:18.739Z,102389.53
2022-08-07T08:38:08.132Z,102395.19
2022-08-07T08:43:00.966Z,102392.31
2022-08-07T08:48:10.759Z,102386.31
2022-08-07T08:53:20.452Z,102377.31
2022-08-07T08:58:31.529Z,102371.69
2022-08-07T09:03:48.030Z,102371.25
2022-08-07T09:09:01.639Z,102366.00
2022-08-07T09:14:13.486Z,102367.59
2022-08-07T09:19:51.203Z,102362.47
2022-08-07T09:25:07.083Z,102354.34
2022-08-07T09:30:20.739Z,102340.69
2022-08-07T09:36:03.202Z,102341.66
2022-08-07T09:41:36.165Z,102338.03
2022-08-07T09:47:50.043Z,102336.56
2022-08-07T09:52:35.251Z,102334.09
2022-08-07T09:58:32.572Z,102334.81
2022-08-07T10:04:06.676Z,102334.84
2022-08-07T10:09:42.986Z,102313.91
2022-08-07T10:15:15.441Z,102308.78
2022-08-07T10:20:33.541Z,102309.97
2022-08-07T10:25:51.915Z,102301.81
2022-08-07T10:31:13.071Z,102297.16
2022-08-07T10:36:29.843Z,102298.66
2022-08-07T10:41:46.575Z,102288.56
2022-08-07T10:47:00.141Z,102276.78
2022-08-07T10:52:13.316Z,102275.91
2022-08-07T10:57:34.067Z,102271.56
2022-08-07T11:02:49.462Z,102259.97
2022-08-07T11:08:08.091Z,102264.84
2022-08-07T11:14:57.555Z,102265.66
2022-08-07T11:18:50.953Z,102260.69
2022-08-07T11:24:03.032Z,102248.00
2022-08-07T11:29:13.110Z,102245.41
2022-08-07T11:34:42.439Z,102235.25
2022-08-07T11:40:03.574Z,102238.78
2022-08-07T11:45:20.612Z,102229.66
2022-08-07T11:50:44.330Z,102224.16
2022-08-07T11:56:26.404Z,102224.16
2022-08-07T12:01:59.084Z,102215.78
2022-08-07T12:07:22.075Z,102215.66
2022-08-07T12:12:38.692Z,102207.94
2022-08-07T12:17:58.484Z,102205.78
2022-08-07T12:23:21.621Z,102206.13
2022-08-07T12:28:53.889Z,102200.91
2022-08-07T12:34:01.880Z,102195.22
2022-08-07T12:39:09.382Z,102192.72
2022-08-07T12:44:34.593Z,102192.03
2022-08-07T12:49:51.447Z,102175.09
2022-08-07T12:55:05.257Z,102184.91
2022-08-07T13:00:12.808Z,102179.72
2022-08-07T13:06:02.690Z,102177.84
2022-08-07T13:11:22.530Z,102163.00
2022-08-07T13:16:36.947Z,102165.13
2022-08-07T13:27:02.897Z,102163.63
2022-08-07T13:32:32.677Z,102153.16
2022-08-07T13:37:55.510Z,102147.25
2022-08-07T13:43:11.933Z,102142.00
2022-08-07T13:48:27.407Z,102143.22
2022-08-07T13:54:00.379Z,102132.41
2022-08-07T13:59:05.552Z,102127.84
2022-08-07T14:04:17.053Z,102119.09
2022-08-07T14:10:01.933Z,102119.34
2022-08-07T14:14:57.046Z,102110.41
2022-08-07T14:20:40.178Z,102105.69
2022-08-07T14:25:39.407Z,102102.06
2022-08-07T14:30:52.027Z,102101.81
2022-08-07T14:36:00.651Z,102102.44
2022-08-07T14:46:33.527Z,102094.47
2022-08-07T14:52:03.800Z,102092.56
2022-08-07T14:57:11.038Z,102090.91
2022-08-07T15:02:33.971Z,102086.47
2022-08-07T15:07:51.240Z,102088.72
2022-08-07T15:12:58.087Z,102093.91
2022-08-07T15:18:05.455Z,102091.91
2022-08-07T15:25:02.304Z,102087.97
2022-08-07T15:28:59.476Z,102085.31
2022-08-07T15:34:21.820Z,102094.06
2022-08-07T15:39:56.841Z,102082.91
2022-08-07T15:44:54.490Z,102088.59
2022-08-07T15:50:05.503Z,102081.53
2022-08-07T15:55:15.680Z,102075.38
2022-08-07T16:00:31.881Z,102073.41
2022-08-07T16:05:39.464Z,102068.94
2022-08-07T16:10:48.608Z,102070.66
2022-08-07T16:16:06.500Z,102088.28
2022-08-07T16:22:02.126Z,102078.84
2022-08-07T16:26:59.385Z,102069.59
2022-08-07T16:32:06.007Z,102076.25
2022-08-07T16:38:02.745Z,102073.13
2022-08-07T16:43:09.357Z,102081.75
2022-08-07T16:48:58.517Z,102083.13
2022-08-07T16:54:34.541Z,102080.06
2022-08-07T16:59:51.797Z,102076.19
2022-08-07T17:06:02.217Z,102080.56
2022-08-07T17:10:43.919Z,102079.63
2022-08-07T17:16:06.719Z,102085.38
2022-08-07T17:21:19.110Z,102088.53
2022-08-07T17:26:35.842Z,102090.91
2022-08-07T17:32:06.392Z,102092.44
2022-08-07T17:38:05.853Z,102094.84
2022-08-07T17:42:58.405Z,102087.66
2022-08-07T17:48:12.928Z,102098.22
2022-08-07T17:54:01.062Z,102099.84
2022-08-07T17:59:05.120Z,102095.72
2022-08-07T18:04:24.741Z,102087.09
2022-08-07T18:10:04.279Z,102097.34
2022-08-07T18:21:07.960Z,102102.97
2022-08-07T18:25:49.371Z,102102.59
2022-08-07T18:31:08.580Z,102110.31
2022-08-07T18:36:32.870Z,102100.75
2022-08-07T18:41:58.893Z,102105.81
2022-08-07T18:47:22.714Z,102117.31
2022-08-07T18:52:56.679Z,102118.00
2022-08-07T18:58:29.660Z,102128.38
2022-08-07T19:03:43.895Z,102136.06
2022-08-07T19:09:09.267Z,102140.16
2022-08-07T19:14:51.240Z,102136.34
2022-08-07T19:20:04.394Z,102138.69
2022-08-07T19:26:22.608Z,102136.59
2022-08-07T19:31:05.896Z,102146.25
2022-08-07T19:36:05.073Z,102154.97
2022-08-07T19:41:14.323Z,102155.53
2022-08-07T19:46:26.631Z,102155.22
2022-08-07T19:51:51.034Z,102149.41
2022-08-07T19:58:01.165Z,102158.53
2022-08-07T20:02:31.266Z,102161.31
2022-08-07T20:07:48.173Z,102162.59
2022-08-07T20:12:57.834Z,102158.53
2022-08-07T20:18:04.377Z,102156.41
2022-08-07T20:23:23.146Z,102160.47
2022-08-07T20:28:37.117Z,102165.19
2022-08-07T20:33:43.814Z,102157.53
2022-08-07T20:39:00.759Z,102160.72
2022-08-07T20:44:19.759Z,102154.13
2022-08-07T20:49:58.310Z,102162.50
2022-08-07T20:54:53.791Z,102155.75
2022-08-07T21:00:09.254Z,102163.09
2022-08-07T21:05:17.049Z,102172.88
2022-08-07T21:10:43.223Z,102176.38
2022-08-07T21:15:58.309Z,102164.72
2022-08-07T21:21:05.177Z,102167.19
2022-08-07T21:26:22.854Z,102171.94
2022-08-07T21:32:42.271Z,102170.63
2022-08-07T21:37:12.460Z,102178.88
2022-08-07T21:42:42.623Z,102179.41
2022-08-07T21:47:57.574Z,102181.53
2022-08-07T21:53:08.505Z,102176.50
2022-08-07T21:58:30.517Z,102168.97
2022-08-07T22:03:43.838Z,102173.75
2022-08-07T22:08:55.028Z,102177.66
2022-08-07T22:13:59.613Z,102184.31
2022-08-07T22:19:20.070Z,102179.59
2022-08-07T22:24:38.298Z,102186.91
2022-08-07T22:29:50.431Z,102184.69
2022-08-07T22:34:56.550Z,102194.75
2022-08-07T22:40:05.112Z,102191.53
2022-08-07T22:46:04.856Z,102187.13
2022-08-07T22:51:06.412Z,102190.00
2022-08-07T22:56:10.496Z,102195.59
2022-08-07T23:01:42.168Z,102196.28
2022-08-07T23:07:40.265Z,102192.59
2022-08-07T23:12:57.248Z,102200.72
2022-08-07T23:18:12.769Z,102203.47
2022-08-07T23:24:06.491Z,102209.78
2022-08-07T23:29:43.694Z,102206.97
2022-08-07T23:35:11.604Z,102198.56
2022-08-07T23:40:36.939Z,102211.81
2022-08-07T23:46:02.852Z,102211.00
2022-08-07T23:53:01.819Z,102208.59
2022-08-07T23:56:54.079Z,102199.81
